sensor_id;sensor_type;location;lat;lon;timestamp;P1;durP1;ratioP1;P2;durP2;ratioP2
6282;SDS011;3174;53.486;9.568;2023-02-14T00:00:52;23.87;;;11.03;;
6282;SDS011;3174;53.486;9.568;2023-02-14T00:03:20;23.87;;;11.30;;
6282;SDS011;3174;53.486;9.568;2023-02-14T00:05:49;23.47;;;10.93;;
6282;SDS011;3174;53.486;9.568;2023-02-14T00:08:17;21.07;;;10.90;;
6282;SDS011;3174;53.486;9.568;2023-02-14T00:10:45;29.90;;;13.00;;
6282;SDS011;3174;53.486;9.568;2023-02-14T00:13:13;24.80;;;11.03;;
6282;SDS011;3174;53.486;9.568;2023-02-14T00:15:41;27.63;;;10.63;;
6282;SDS011;3174;53.486;9.568;2023-02-14T00:18:08;23.47;;;10.57;;
6282;SDS011;3174;53.486;9.568;2023-02-14T00:20:36;25.33;;;11.33;;
6282;SDS011;3174;53.486;9.568;2023-02-14T00:23:05;20.53;;;10.33;;
6282;SDS011;3174;53.486;9.568;2023-02-14T00:25:33;27.13;;;11.20;;
6282;SDS011;3174;53.486;9.568;2023-02-14T00:28:01;22.77;;;10.27;;
6282;SDS011;3174;53.486;9.568;2023-02-14T00:30:29;22.77;;;10.27;;
6282;SDS011;3174;53.486;9.568;2023-02-14T00:32:57;26.70;;;11.10;;
6282;SDS011;3174;53.486;9.568;2023-02-14T00:35:25;24.70;;;10.00;;
6282;SDS011;3174;53.486;9.568;2023-02-14T00:37:53;22.40;;;9.77;;
6282;SDS011;3174;53.486;9.568;2023-02-14T00:40:22;20.50;;;10.40;;
6282;SDS011;3174;53.486;9.568;2023-02-14T00:42:50;25.17;;;9.93;;
6282;SDS011;3174;53.486;9.568;2023-02-14T00:45:18;25.47;;;10.63;;
6282;SDS011;3174;53.486;9.568;2023-02-14T00:47:46;26.33;;;10.67;;
6282;SDS011;3174;53.486;9.568;2023-02-14T00:50:14;21.77;;;10.27;;
6282;SDS011;3174;53.486;9.568;2023-02-14T00:52:42;24.73;;;10.30;;
6282;SDS011;3174;53.486;9.568;2023-02-14T00:55:10;23.07;;;9.93;;
6282;SDS011;3174;53.486;9.568;2023-02-14T00:57:39;22.37;;;10.13;;
6282;SDS011;3174;53.486;9.568;2023-02-14T01:00:08;25.73;;;11.07;;
6282;SDS011;3174;53.486;9.568;2023-02-14T01:02:36;29.10;;;10.40;;
6282;SDS011;3174;53.486;9.568;2023-02-14T01:05:04;25.47;;;10.40;;
6282;SDS011;3174;53.486;9.568;2023-02-14T01:07:33;24.07;;;10.47;;
6282;SDS011;3174;53.486;9.568;2023-02-14T01:10:00;21.93;;;9.93;;
6282;SDS011;3174;53.486;9.568;2023-02-14T01:12:28;22.27;;;10.03;;
6282;SDS011;3174;53.486;9.568;2023-02-14T01:14:58;24.17;;;10.53;;
6282;SDS011;3174;53.486;9.568;2023-02-14T01:17:26;26.10;;;10.97;;
6282;SDS011;3174;53.486;9.568;2023-02-14T01:19:54;23.43;;;10.03;;
6282;SDS011;3174;53.486;9.568;2023-02-14T01:22:22;24.47;;;10.00;;
6282;SDS011;3174;53.486;9.568;2023-02-14T01:24:50;32.57;;;11.30;;
6282;SDS011;3174;53.486;9.568;2023-02-14T01:27:18;26.43;;;10.93;;
6282;SDS011;3174;53.486;9.568;2023-02-14T01:29:46;28.57;;;12.00;;
6282;SDS011;3174;53.486;9.568;2023-02-14T01:32:15;26.90;;;10.87;;
6282;SDS011;3174;53.486;9.568;2023-02-14T01:34:43;31.53;;;11.30;;
6282;SDS011;3174;53.486;9.568;2023-02-14T01:37:11;23.27;;;10.10;;
6282;SDS011;3174;53.486;9.568;2023-02-14T01:39:39;22.83;;;10.50;;
6282;SDS011;3174;53.486;9.568;2023-02-14T01:42:08;25.03;;;11.63;;
6282;SDS011;3174;53.486;9.568;2023-02-14T01:47:35;25.17;;;11.40;;
6282;SDS011;3174;53.486;9.568;2023-02-14T01:50:06;24.90;;;10.47;;
6282;SDS011;3174;53.486;9.568;2023-02-14T01:52:36;22.97;;;10.83;;
6282;SDS011;3174;53.486;9.568;2023-02-14T01:55:08;27.83;;;11.43;;
6282;SDS011;3174;53.486;9.568;2023-02-14T01:57:39;29.50;;;11.97;;
6282;SDS011;3174;53.486;9.568;2023-02-14T02:00:10;25.47;;;11.13;;
6282;SDS011;3174;53.486;9.568;2023-02-14T02:02:57;21.57;;;10.27;;
6282;SDS011;3174;53.486;9.568;2023-02-14T02:05:26;24.87;;;10.93;;
6282;SDS011;3174;53.486;9.568;2023-02-14T02:07:55;22.17;;;10.27;;
6282;SDS011;3174;53.486;9.568;2023-02-14T02:10:24;25.27;;;10.43;;
6282;SDS011;3174;53.486;9.568;2023-02-14T02:12:52;21.70;;;9.93;;
6282;SDS011;3174;53.486;9.568;2023-02-14T02:15:21;25.07;;;10.73;;
6282;SDS011;3174;53.486;9.568;2023-02-14T02:17:52;32.00;;;13.13;;
6282;SDS011;3174;53.486;9.568;2023-02-14T02:20:28;37.57;;;13.67;;
6282;SDS011;3174;53.486;9.568;2023-02-14T02:23:28;31.87;;;12.60;;
6282;SDS011;3174;53.486;9.568;2023-02-14T02:29:48;41.27;;;15.17;;
6282;SDS011;3174;53.486;9.568;2023-02-14T02:32:48;34.57;;;14.37;;
6282;SDS011;3174;53.486;9.568;2023-02-14T02:35:29;38.07;;;13.63;;
6282;SDS011;3174;53.486;9.568;2023-02-14T02:38:12;25.40;;;11.37;;
6282;SDS011;3174;53.486;9.568;2023-02-14T02:40:48;25.60;;;10.43;;
6282;SDS011;3174;53.486;9.568;2023-02-14T02:43:27;25.00;;;10.60;;
6282;SDS011;3174;53.486;9.568;2023-02-14T02:46:01;31.73;;;14.17;;
6282;SDS011;3174;53.486;9.568;2023-02-14T02:48:52;27.43;;;11.30;;
6282;SDS011;3174;53.486;9.568;2023-02-14T02:51:26;22.40;;;10.30;;
6282;SDS011;3174;53.486;9.568;2023-02-14T02:54:17;27.57;;;11.90;;
6282;SDS011;3174;53.486;9.568;2023-02-14T02:56:47;26.43;;;11.80;;
6282;SDS011;3174;53.486;9.568;2023-02-14T02:59:19;25.67;;;10.67;;
6282;SDS011;3174;53.486;9.568;2023-02-14T03:01:50;32.73;;;13.10;;
6282;SDS011;3174;53.486;9.568;2023-02-14T03:04:23;33.87;;;14.07;;
6282;SDS011;3174;53.486;9.568;2023-02-14T03:07:12;36.03;;;14.23;;
6282;SDS011;3174;53.486;9.568;2023-02-14T03:09:58;26.67;;;11.53;;
6282;SDS011;3174;53.486;9.568;2023-02-14T03:15:50;27.27;;;10.17;;
6282;SDS011;3174;53.486;9.568;2023-02-14T03:18:28;26.03;;;11.17;;
6282;SDS011;3174;53.486;9.568;2023-02-14T03:21:25;29.80;;;12.07;;
6282;SDS011;3174;53.486;9.568;2023-02-14T03:24:01;31.47;;;13.27;;
6282;SDS011;3174;53.486;9.568;2023-02-14T03:26:33;32.53;;;13.33;;
6282;SDS011;3174;53.486;9.568;2023-02-14T03:29:07;28.67;;;11.63;;
6282;SDS011;3174;53.486;9.568;2023-02-14T03:31:42;26.27;;;11.80;;
6282;SDS011;3174;53.486;9.568;2023-02-14T03:34:15;26.77;;;9.97;;
6282;SDS011;3174;53.486;9.568;2023-02-14T03:36:47;24.13;;;10.90;;
6282;SDS011;3174;53.486;9.568;2023-02-14T03:39:20;30.57;;;12.93;;
6282;SDS011;3174;53.486;9.568;2023-02-14T03:41:52;26.80;;;11.23;;
6282;SDS011;3174;53.486;9.568;2023-02-14T03:44:24;28.47;;;10.87;;
6282;SDS011;3174;53.486;9.568;2023-02-14T03:46:55;28.23;;;11.13;;
6282;SDS011;3174;53.486;9.568;2023-02-14T03:49:26;25.57;;;10.73;;
6282;SDS011;3174;53.486;9.568;2023-02-14T03:51:57;27.90;;;11.43;;
6282;SDS011;3174;53.486;9.568;2023-02-14T03:54:27;26.63;;;11.30;;
6282;SDS011;3174;53.486;9.568;2023-02-14T03:56:59;26.23;;;11.57;;
6282;SDS011;3174;53.486;9.568;2023-02-14T03:59:31;37.60;;;13.50;;
6282;SDS011;3174;53.486;9.568;2023-02-14T04:02:00;32.13;;;12.57;;
6282;SDS011;3174;53.486;9.568;2023-02-14T04:04:31;34.97;;;13.97;;
6282;SDS011;3174;53.486;9.568;2023-02-14T04:07:06;29.40;;;11.17;;
6282;SDS011;3174;53.486;9.568;2023-02-14T04:09:37;28.13;;;10.37;;
6282;SDS011;3174;53.486;9.568;2023-02-14T04:12:05;30.33;;;12.50;;
6282;SDS011;3174;53.486;9.568;2023-02-14T04:14:33;28.93;;;11.20;;
6282;SDS011;3174;53.486;9.568;2023-02-14T04:17:02;29.33;;;12.00;;
6282;SDS011;3174;53.486;9.568;2023-02-14T04:19:47;39.97;;;14.23;;
6282;SDS011;3174;53.486;9.568;2023-02-14T04:22:15;27.50;;;11.27;;
6282;SDS011;3174;53.486;9.568;2023-02-14T04:24:44;28.40;;;11.53;;
6282;SDS011;3174;53.486;9.568;2023-02-14T04:27:12;27.33;;;10.73;;
6282;SDS011;3174;53.486;9.568;2023-02-14T04:29:41;31.57;;;12.03;;
6282;SDS011;3174;53.486;9.568;2023-02-14T04:32:12;32.90;;;13.27;;
6282;SDS011;3174;53.486;9.568;2023-02-14T04:34:42;36.07;;;13.97;;
6282;SDS011;3174;53.486;9.568;2023-02-14T04:37:10;33.63;;;13.83;;
6282;SDS011;3174;53.486;9.568;2023-02-14T04:39:39;31.80;;;14.17;;
6282;SDS011;3174;53.486;9.568;2023-02-14T04:42:08;25.63;;;11.60;;
6282;SDS011;3174;53.486;9.568;2023-02-14T04:44:36;28.07;;;12.43;;
6282;SDS011;3174;53.486;9.568;2023-02-14T04:47:04;26.57;;;11.13;;
6282;SDS011;3174;53.486;9.568;2023-02-14T04:49:33;22.57;;;10.40;;
6282;SDS011;3174;53.486;9.568;2023-02-14T04:52:02;26.83;;;10.70;;
6282;SDS011;3174;53.486;9.568;2023-02-14T04:54:30;26.03;;;10.77;;
6282;SDS011;3174;53.486;9.568;2023-02-14T04:56:58;29.63;;;11.43;;
6282;SDS011;3174;53.486;9.568;2023-02-14T04:59:28;29.93;;;11.83;;
6282;SDS011;3174;53.486;9.568;2023-02-14T05:01:56;31.40;;;13.07;;
6282;SDS011;3174;53.486;9.568;2023-02-14T05:04:24;26.47;;;11.17;;
6282;SDS011;3174;53.486;9.568;2023-02-14T05:06:52;27.17;;;10.80;;
6282;SDS011;3174;53.486;9.568;2023-02-14T05:09:20;24.43;;;11.00;;
6282;SDS011;3174;53.486;9.568;2023-02-14T05:11:48;31.03;;;11.57;;
6282;SDS011;3174;53.486;9.568;2023-02-14T05:14:16;28.87;;;11.07;;
6282;SDS011;3174;53.486;9.568;2023-02-14T05:16:45;27.80;;;10.90;;
6282;SDS011;3174;53.486;9.568;2023-02-14T05:19:13;26.10;;;11.50;;
6282;SDS011;3174;53.486;9.568;2023-02-14T05:21:41;26.37;;;10.80;;
6282;SDS011;3174;53.486;9.568;2023-02-14T05:24:09;31.50;;;11.77;;
6282;SDS011;3174;53.486;9.568;2023-02-14T05:26:37;27.00;;;9.87;;
6282;SDS011;3174;53.486;9.568;2023-02-14T05:29:06;21.20;;;10.33;;
6282;SDS011;3174;53.486;9.568;2023-02-14T05:31:34;26.23;;;11.33;;
6282;SDS011;3174;53.486;9.568;2023-02-14T05:34:04;24.37;;;11.50;;
6282;SDS011;3174;53.486;9.568;2023-02-14T05:36:31;34.73;;;12.90;;
6282;SDS011;3174;53.486;9.568;2023-02-14T05:38:59;30.47;;;11.10;;
6282;SDS011;3174;53.486;9.568;2023-02-14T05:41:27;33.20;;;12.67;;
6282;SDS011;3174;53.486;9.568;2023-02-14T05:43:55;29.33;;;12.73;;
6282;SDS011;3174;53.486;9.568;2023-02-14T05:46:23;31.37;;;12.37;;
6282;SDS011;3174;53.486;9.568;2023-02-14T05:48:51;27.63;;;11.53;;
6282;SDS011;3174;53.486;9.568;2023-02-14T05:51:20;30.90;;;11.87;;
6282;SDS011;3174;53.486;9.568;2023-02-14T05:53:48;29.90;;;12.63;;
6282;SDS011;3174;53.486;9.568;2023-02-14T05:56:16;30.87;;;12.27;;
6282;SDS011;3174;53.486;9.568;2023-02-14T05:58:44;34.60;;;13.83;;
6282;SDS011;3174;53.486;9.568;2023-02-14T06:01:12;31.17;;;11.77;;
6282;SDS011;3174;53.486;9.568;2023-02-14T06:03:40;25.90;;;11.27;;
6282;SDS011;3174;53.486;9.568;2023-02-14T06:06:08;27.40;;;11.13;;
6282;SDS011;3174;53.486;9.568;2023-02-14T06:08:37;30.63;;;12.57;;
6282;SDS011;3174;53.486;9.568;2023-02-14T06:11:05;24.87;;;10.73;;
6282;SDS011;3174;53.486;9.568;2023-02-14T06:13:33;34.20;;;13.80;;
6282;SDS011;3174;53.486;9.568;2023-02-14T06:16:01;34.77;;;12.83;;
6282;SDS011;3174;53.486;9.568;2023-02-14T06:18:29;37.00;;;14.00;;
6282;SDS011;3174;53.486;9.568;2023-02-14T06:20:57;34.63;;;13.67;;
6282;SDS011;3174;53.486;9.568;2023-02-14T06:23:26;33.33;;;13.37;;
6282;SDS011;3174;53.486;9.568;2023-02-14T06:25:55;27.23;;;11.40;;
6282;SDS011;3174;53.486;9.568;2023-02-14T06:28:23;32.17;;;11.13;;
6282;SDS011;3174;53.486;9.568;2023-02-14T06:30:51;30.03;;;11.57;;
6282;SDS011;3174;53.486;9.568;2023-02-14T06:33:19;29.03;;;12.77;;
6282;SDS011;3174;53.486;9.568;2023-02-14T06:35:47;29.53;;;12.40;;
6282;SDS011;3174;53.486;9.568;2023-02-14T06:38:15;25.73;;;11.00;;
6282;SDS011;3174;53.486;9.568;2023-02-14T06:40:43;36.13;;;12.40;;
6282;SDS011;3174;53.486;9.568;2023-02-14T06:43:12;29.37;;;11.40;;
6282;SDS011;3174;53.486;9.568;2023-02-14T06:45:40;27.30;;;11.63;;
6282;SDS011;3174;53.486;9.568;2023-02-14T06:48:09;31.00;;;12.43;;
6282;SDS011;3174;53.486;9.568;2023-02-14T06:50:37;29.80;;;12.23;;
6282;SDS011;3174;53.486;9.568;2023-02-14T06:53:05;28.27;;;10.93;;
6282;SDS011;3174;53.486;9.568;2023-02-14T06:55:33;29.53;;;11.77;;
6282;SDS011;3174;53.486;9.568;2023-02-14T06:58:01;28.83;;;12.30;;
6282;SDS011;3174;53.486;9.568;2023-02-14T07:00:30;23.43;;;10.43;;
6282;SDS011;3174;53.486;9.568;2023-02-14T07:02:58;24.40;;;10.57;;
6282;SDS011;3174;53.486;9.568;2023-02-14T07:05:26;28.50;;;11.37;;
6282;SDS011;3174;53.486;9.568;2023-02-14T07:07:54;24.70;;;11.23;;
6282;SDS011;3174;53.486;9.568;2023-02-14T07:10:22;22.23;;;9.87;;
6282;SDS011;3174;53.486;9.568;2023-02-14T07:12:50;26.50;;;10.93;;
6282;SDS011;3174;53.486;9.568;2023-02-14T07:15:18;27.93;;;11.43;;
6282;SDS011;3174;53.486;9.568;2023-02-14T07:17:48;27.67;;;11.13;;
6282;SDS011;3174;53.486;9.568;2023-02-14T07:20:16;31.27;;;11.50;;
6282;SDS011;3174;53.486;9.568;2023-02-14T07:22:44;22.17;;;10.37;;
6282;SDS011;3174;53.486;9.568;2023-02-14T07:25:12;23.47;;;10.13;;
6282;SDS011;3174;53.486;9.568;2023-02-14T07:27:41;24.87;;;10.67;;
6282;SDS011;3174;53.486;9.568;2023-02-14T07:30:09;24.17;;;10.63;;
6282;SDS011;3174;53.486;9.568;2023-02-14T07:32:38;24.33;;;10.27;;
6282;SDS011;3174;53.486;9.568;2023-02-14T07:35:08;27.33;;;11.23;;
6282;SDS011;3174;53.486;9.568;2023-02-14T07:37:36;27.47;;;11.47;;
6282;SDS011;3174;53.486;9.568;2023-02-14T07:40:05;23.47;;;10.40;;
6282;SDS011;3174;53.486;9.568;2023-02-14T07:42:40;24.00;;;10.80;;
6282;SDS011;3174;53.486;9.568;2023-02-14T07:45:08;23.57;;;9.83;;
6282;SDS011;3174;53.486;9.568;2023-02-14T07:47:47;25.33;;;10.33;;
6282;SDS011;3174;53.486;9.568;2023-02-14T07:50:17;24.37;;;10.17;;
6282;SDS011;3174;53.486;9.568;2023-02-14T07:52:45;22.73;;;9.77;;
6282;SDS011;3174;53.486;9.568;2023-02-14T07:55:14;25.07;;;10.57;;
6282;SDS011;3174;53.486;9.568;2023-02-14T07:57:42;24.47;;;10.40;;
6282;SDS011;3174;53.486;9.568;2023-02-14T08:00:10;26.10;;;10.77;;
6282;SDS011;3174;53.486;9.568;2023-02-14T08:02:40;23.70;;;10.83;;
6282;SDS011;3174;53.486;9.568;2023-02-14T08:05:08;26.20;;;11.33;;
6282;SDS011;3174;53.486;9.568;2023-02-14T08:07:38;23.87;;;10.67;;
6282;SDS011;3174;53.486;9.568;2023-02-14T08:10:06;24.40;;;9.30;;
6282;SDS011;3174;53.486;9.568;2023-02-14T08:12:38;24.83;;;9.90;;
6282;SDS011;3174;53.486;9.568;2023-02-14T08:15:24;25.97;;;9.87;;
6282;SDS011;3174;53.486;9.568;2023-02-14T08:18:10;31.13;;;10.47;;
6282;SDS011;3174;53.486;9.568;2023-02-14T08:20:38;23.77;;;9.60;;
6282;SDS011;3174;53.486;9.568;2023-02-14T08:23:08;24.90;;;10.57;;
6282;SDS011;3174;53.486;9.568;2023-02-14T08:25:36;24.70;;;10.20;;
6282;SDS011;3174;53.486;9.568;2023-02-14T08:28:04;23.53;;;9.87;;
6282;SDS011;3174;53.486;9.568;2023-02-14T08:30:34;28.13;;;11.93;;
6282;SDS011;3174;53.486;9.568;2023-02-14T08:33:03;21.97;;;10.20;;
6282;SDS011;3174;53.486;9.568;2023-02-14T08:35:31;22.73;;;9.90;;
6282;SDS011;3174;53.486;9.568;2023-02-14T08:37:59;22.77;;;10.27;;
6282;SDS011;3174;53.486;9.568;2023-02-14T08:40:29;35.43;;;12.33;;
6282;SDS011;3174;53.486;9.568;2023-02-14T08:42:57;25.07;;;9.37;;
6282;SDS011;3174;53.486;9.568;2023-02-14T08:45:25;26.90;;;9.97;;
6282;SDS011;3174;53.486;9.568;2023-02-14T08:47:53;21.20;;;9.53;;
6282;SDS011;3174;53.486;9.568;2023-02-14T08:50:21;23.80;;;9.70;;
6282;SDS011;3174;53.486;9.568;2023-02-14T08:52:49;20.13;;;9.60;;
6282;SDS011;3174;53.486;9.568;2023-02-14T08:55:17;21.97;;;9.80;;
6282;SDS011;3174;53.486;9.568;2023-02-14T08:57:46;23.37;;;9.50;;
6282;SDS011;3174;53.486;9.568;2023-02-14T09:00:15;25.87;;;10.23;;
6282;SDS011;3174;53.486;9.568;2023-02-14T09:02:43;26.63;;;11.53;;
6282;SDS011;3174;53.486;9.568;2023-02-14T09:05:11;30.40;;;12.00;;
6282;SDS011;3174;53.486;9.568;2023-02-14T09:07:39;25.00;;;10.20;;
6282;SDS011;3174;53.486;9.568;2023-02-14T09:10:07;21.47;;;9.40;;
6282;SDS011;3174;53.486;9.568;2023-02-14T09:12:37;24.17;;;10.83;;
6282;SDS011;3174;53.486;9.568;2023-02-14T09:15:08;33.53;;;12.50;;
6282;SDS011;3174;53.486;9.568;2023-02-14T09:17:36;30.87;;;12.73;;
6282;SDS011;3174;53.486;9.568;2023-02-14T09:20:05;31.40;;;11.87;;
6282;SDS011;3174;53.486;9.568;2023-02-14T09:22:34;28.33;;;12.13;;
6282;SDS011;3174;53.486;9.568;2023-02-14T09:25:02;27.83;;;11.03;;
6282;SDS011;3174;53.486;9.568;2023-02-14T09:27:31;24.03;;;11.40;;
6282;SDS011;3174;53.486;9.568;2023-02-14T09:29:59;26.10;;;10.87;;
6282;SDS011;3174;53.486;9.568;2023-02-14T09:32:28;24.97;;;10.90;;
6282;SDS011;3174;53.486;9.568;2023-02-14T09:34:57;28.30;;;12.77;;
6282;SDS011;3174;53.486;9.568;2023-02-14T09:37:42;26.70;;;12.67;;
6282;SDS011;3174;53.486;9.568;2023-02-14T09:40:27;28.13;;;11.43;;
6282;SDS011;3174;53.486;9.568;2023-02-14T09:42:57;24.40;;;11.03;;
6282;SDS011;3174;53.486;9.568;2023-02-14T09:45:29;28.53;;;12.83;;
6282;SDS011;3174;53.486;9.568;2023-02-14T09:48:01;29.77;;;11.27;;
6282;SDS011;3174;53.486;9.568;2023-02-14T09:50:35;20.53;;;10.23;;
6282;SDS011;3174;53.486;9.568;2023-02-14T09:53:07;25.57;;;11.00;;
6282;SDS011;3174;53.486;9.568;2023-02-14T09:55:48;25.17;;;10.37;;
6282;SDS011;3174;53.486;9.568;2023-02-14T09:58:21;27.20;;;11.93;;
6282;SDS011;3174;53.486;9.568;2023-02-14T10:00:54;28.13;;;11.60;;
6282;SDS011;3174;53.486;9.568;2023-02-14T10:06:45;23.23;;;10.77;;
6282;SDS011;3174;53.486;9.568;2023-02-14T10:09:21;26.83;;;11.53;;
6282;SDS011;3174;53.486;9.568;2023-02-14T10:11:57;25.80;;;10.63;;
6282;SDS011;3174;53.486;9.568;2023-02-14T10:14:28;29.53;;;13.30;;
6282;SDS011;3174;53.486;9.568;2023-02-14T10:17:00;23.93;;;11.93;;
6282;SDS011;3174;53.486;9.568;2023-02-14T10:19:35;22.80;;;10.90;;
6282;SDS011;3174;53.486;9.568;2023-02-14T10:22:06;23.00;;;10.87;;
6282;SDS011;3174;53.486;9.568;2023-02-14T10:24:39;23.93;;;10.93;;
6282;SDS011;3174;53.486;9.568;2023-02-14T10:27:11;24.90;;;10.27;;
6282;SDS011;3174;53.486;9.568;2023-02-14T10:29:43;24.90;;;10.63;;
6282;SDS011;3174;53.486;9.568;2023-02-14T10:32:12;22.87;;;10.53;;
6282;SDS011;3174;53.486;9.568;2023-02-14T10:34:43;27.23;;;11.43;;
6282;SDS011;3174;53.486;9.568;2023-02-14T10:37:17;24.93;;;10.27;;
6282;SDS011;3174;53.486;9.568;2023-02-14T10:39:56;23.33;;;10.57;;
6282;SDS011;3174;53.486;9.568;2023-02-14T10:42:32;26.70;;;12.20;;
6282;SDS011;3174;53.486;9.568;2023-02-14T10:45:09;28.93;;;11.83;;
6282;SDS011;3174;53.486;9.568;2023-02-14T10:47:44;22.70;;;9.83;;
6282;SDS011;3174;53.486;9.568;2023-02-14T10:50:20;25.43;;;10.43;;
6282;SDS011;3174;53.486;9.568;2023-02-14T10:52:55;23.10;;;9.80;;
6282;SDS011;3174;53.486;9.568;2023-02-14T10:55:35;28.30;;;11.13;;
6282;SDS011;3174;53.486;9.568;2023-02-14T10:58:06;26.10;;;11.53;;
6282;SDS011;3174;53.486;9.568;2023-02-14T11:00:40;19.27;;;8.93;;
6282;SDS011;3174;53.486;9.568;2023-02-14T11:03:13;20.70;;;8.77;;
6282;SDS011;3174;53.486;9.568;2023-02-14T11:05:43;20.27;;;9.97;;
6282;SDS011;3174;53.486;9.568;2023-02-14T11:08:13;23.57;;;10.73;;
6282;SDS011;3174;53.486;9.568;2023-02-14T11:10:51;25.27;;;11.20;;
6282;SDS011;3174;53.486;9.568;2023-02-14T11:13:31;24.67;;;10.53;;
6282;SDS011;3174;53.486;9.568;2023-02-14T11:16:01;22.20;;;10.10;;
6282;SDS011;3174;53.486;9.568;2023-02-14T11:18:30;17.50;;;9.00;;
6282;SDS011;3174;53.486;9.568;2023-02-14T11:21:04;21.67;;;9.87;;
6282;SDS011;3174;53.486;9.568;2023-02-14T11:23:35;24.27;;;9.87;;
6282;SDS011;3174;53.486;9.568;2023-02-14T11:26:08;22.10;;;9.47;;
6282;SDS011;3174;53.486;9.568;2023-02-14T11:28:51;28.00;;;10.43;;
6282;SDS011;3174;53.486;9.568;2023-02-14T11:31:25;18.30;;;9.53;;
6282;SDS011;3174;53.486;9.568;2023-02-14T11:33:55;20.50;;;9.73;;
6282;SDS011;3174;53.486;9.568;2023-02-14T11:36:25;20.43;;;10.00;;
6282;SDS011;3174;53.486;9.568;2023-02-14T11:38:54;20.13;;;8.93;;
6282;SDS011;3174;53.486;9.568;2023-02-14T11:41:23;23.47;;;10.40;;
6282;SDS011;3174;53.486;9.568;2023-02-14T11:43:54;20.47;;;9.80;;
6282;SDS011;3174;53.486;9.568;2023-02-14T11:46:40;19.70;;;9.27;;
6282;SDS011;3174;53.486;9.568;2023-02-14T11:49:23;23.37;;;8.70;;
6282;SDS011;3174;53.486;9.568;2023-02-14T11:51:57;20.97;;;9.23;;
6282;SDS011;3174;53.486;9.568;2023-02-14T11:54:28;21.37;;;9.57;;
6282;SDS011;3174;53.486;9.568;2023-02-14T11:57:00;18.00;;;9.40;;
6282;SDS011;3174;53.486;9.568;2023-02-14T11:59:30;20.83;;;9.20;;
6282;SDS011;3174;53.486;9.568;2023-02-14T12:02:00;17.50;;;8.97;;
6282;SDS011;3174;53.486;9.568;2023-02-14T12:04:31;17.30;;;9.20;;
6282;SDS011;3174;53.486;9.568;2023-02-14T12:07:15;21.67;;;9.47;;
6282;SDS011;3174;53.486;9.568;2023-02-14T12:09:45;17.53;;;8.47;;
6282;SDS011;3174;53.486;9.568;2023-02-14T12:12:15;19.27;;;9.37;;
6282;SDS011;3174;53.486;9.568;2023-02-14T12:14:44;21.83;;;9.87;;
6282;SDS011;3174;53.486;9.568;2023-02-14T12:17:17;18.30;;;9.07;;
6282;SDS011;3174;53.486;9.568;2023-02-14T12:19:50;20.60;;;10.13;;
6282;SDS011;3174;53.486;9.568;2023-02-14T12:22:23;20.93;;;8.57;;
6282;SDS011;3174;53.486;9.568;2023-02-14T12:24:56;16.67;;;9.07;;
6282;SDS011;3174;53.486;9.568;2023-02-14T12:27:27;19.10;;;9.00;;
6282;SDS011;3174;53.486;9.568;2023-02-14T12:30:01;18.77;;;10.57;;
6282;SDS011;3174;53.486;9.568;2023-02-14T12:32:38;22.20;;;10.20;;
6282;SDS011;3174;53.486;9.568;2023-02-14T12:35:13;18.17;;;9.17;;
6282;SDS011;3174;53.486;9.568;2023-02-14T12:37:50;18.33;;;9.67;;
6282;SDS011;3174;53.486;9.568;2023-02-14T12:40:32;18.33;;;8.70;;
6282;SDS011;3174;53.486;9.568;2023-02-14T12:43:12;18.93;;;9.03;;
6282;SDS011;3174;53.486;9.568;2023-02-14T12:45:52;20.07;;;9.67;;
6282;SDS011;3174;53.486;9.568;2023-02-14T12:48:35;17.07;;;8.57;;
6282;SDS011;3174;53.486;9.568;2023-02-14T12:51:10;18.93;;;9.10;;
6282;SDS011;3174;53.486;9.568;2023-02-14T12:53:58;19.13;;;9.57;;
6282;SDS011;3174;53.486;9.568;2023-02-14T12:56:34;18.20;;;8.40;;
6282;SDS011;3174;53.486;9.568;2023-02-14T12:59:11;19.97;;;9.90;;
6282;SDS011;3174;53.486;9.568;2023-02-14T13:01:58;16.70;;;7.60;;
6282;SDS011;3174;53.486;9.568;2023-02-14T13:04:47;15.90;;;7.77;;
6282;SDS011;3174;53.486;9.568;2023-02-14T13:07:26;18.27;;;9.57;;
6282;SDS011;3174;53.486;9.568;2023-02-14T13:10:10;16.30;;;7.83;;
6282;SDS011;3174;53.486;9.568;2023-02-14T13:12:42;18.13;;;8.80;;
6282;SDS011;3174;53.486;9.568;2023-02-14T13:15:19;18.67;;;9.10;;
6282;SDS011;3174;53.486;9.568;2023-02-14T13:17:54;17.53;;;9.20;;
6282;SDS011;3174;53.486;9.568;2023-02-14T13:20:33;21.43;;;9.97;;
6282;SDS011;3174;53.486;9.568;2023-02-14T13:23:09;19.17;;;9.13;;
6282;SDS011;3174;53.486;9.568;2023-02-14T13:25:43;15.53;;;8.27;;
6282;SDS011;3174;53.486;9.568;2023-02-14T13:28:15;14.93;;;7.83;;
6282;SDS011;3174;53.486;9.568;2023-02-14T13:30:43;16.50;;;8.03;;
6282;SDS011;3174;53.486;9.568;2023-02-14T13:33:22;17.97;;;8.77;;
6282;SDS011;3174;53.486;9.568;2023-02-14T13:35:54;18.30;;;9.80;;
6282;SDS011;3174;53.486;9.568;2023-02-14T13:38:23;17.13;;;8.10;;
6282;SDS011;3174;53.486;9.568;2023-02-14T13:40:54;16.70;;;8.43;;
6282;SDS011;3174;53.486;9.568;2023-02-14T13:46:17;15.13;;;8.30;;
6282;SDS011;3174;53.486;9.568;2023-02-14T13:48:59;17.70;;;8.70;;
6282;SDS011;3174;53.486;9.568;2023-02-14T13:51:44;17.30;;;8.60;;
6282;SDS011;3174;53.486;9.568;2023-02-14T13:57:22;16.87;;;9.00;;
6282;SDS011;3174;53.486;9.568;2023-02-14T14:02:56;14.80;;;8.03;;
6282;SDS011;3174;53.486;9.568;2023-02-14T14:08:17;16.67;;;8.63;;
6282;SDS011;3174;53.486;9.568;2023-02-14T14:11:12;16.97;;;9.00;;
6282;SDS011;3174;53.486;9.568;2023-02-14T14:13:57;17.53;;;8.67;;
6282;SDS011;3174;53.486;9.568;2023-02-14T14:16:29;15.07;;;7.30;;
6282;SDS011;3174;53.486;9.568;2023-02-14T14:18:59;14.47;;;8.07;;
6282;SDS011;3174;53.486;9.568;2023-02-14T14:21:30;16.90;;;8.80;;
6282;SDS011;3174;53.486;9.568;2023-02-14T14:24:04;18.17;;;9.13;;
6282;SDS011;3174;53.486;9.568;2023-02-14T14:26:40;18.57;;;8.77;;
6282;SDS011;3174;53.486;9.568;2023-02-14T14:29:13;18.50;;;8.40;;
6282;SDS011;3174;53.486;9.568;2023-02-14T14:31:44;13.37;;;7.03;;
6282;SDS011;3174;53.486;9.568;2023-02-14T14:34:17;14.33;;;7.23;;
6282;SDS011;3174;53.486;9.568;2023-02-14T14:36:45;15.57;;;7.60;;
6282;SDS011;3174;53.486;9.568;2023-02-14T14:39:23;14.53;;;7.50;;
6282;SDS011;3174;53.486;9.568;2023-02-14T14:41:55;16.90;;;8.30;;
6282;SDS011;3174;53.486;9.568;2023-02-14T14:44:25;15.33;;;7.87;;
6282;SDS011;3174;53.486;9.568;2023-02-14T14:46:57;14.53;;;7.50;;
6282;SDS011;3174;53.486;9.568;2023-02-14T14:49:25;16.47;;;7.17;;
6282;SDS011;3174;53.486;9.568;2023-02-14T14:51:53;16.73;;;8.03;;
6282;SDS011;3174;53.486;9.568;2023-02-14T14:54:22;15.17;;;8.57;;
6282;SDS011;3174;53.486;9.568;2023-02-14T14:56:53;15.07;;;7.50;;
6282;SDS011;3174;53.486;9.568;2023-02-14T14:59:27;13.97;;;7.47;;
6282;SDS011;3174;53.486;9.568;2023-02-14T15:01:59;15.70;;;7.50;;
6282;SDS011;3174;53.486;9.568;2023-02-14T15:04:28;15.17;;;7.73;;
6282;SDS011;3174;53.486;9.568;2023-02-14T15:09:44;17.73;;;8.30;;
6282;SDS011;3174;53.486;9.568;2023-02-14T15:12:18;14.00;;;7.27;;
6282;SDS011;3174;53.486;9.568;2023-02-14T15:15:06;13.23;;;6.87;;
6282;SDS011;3174;53.486;9.568;2023-02-14T15:17:38;16.57;;;7.97;;
6282;SDS011;3174;53.486;9.568;2023-02-14T15:20:08;15.53;;;8.40;;
6282;SDS011;3174;53.486;9.568;2023-02-14T15:22:40;15.80;;;6.90;;
6282;SDS011;3174;53.486;9.568;2023-02-14T15:25:11;16.27;;;8.27;;
6282;SDS011;3174;53.486;9.568;2023-02-14T15:27:42;14.17;;;7.60;;
6282;SDS011;3174;53.486;9.568;2023-02-14T15:30:21;15.83;;;7.93;;
6282;SDS011;3174;53.486;9.568;2023-02-14T15:32:51;11.53;;;6.57;;
6282;SDS011;3174;53.486;9.568;2023-02-14T15:35:21;17.00;;;7.80;;
6282;SDS011;3174;53.486;9.568;2023-02-14T15:37:50;16.47;;;7.30;;
6282;SDS011;3174;53.486;9.568;2023-02-14T15:40:19;13.37;;;7.13;;
6282;SDS011;3174;53.486;9.568;2023-02-14T15:42:50;15.13;;;7.23;;
6282;SDS011;3174;53.486;9.568;2023-02-14T15:45:28;15.30;;;7.40;;
6282;SDS011;3174;53.486;9.568;2023-02-14T15:47:57;16.33;;;7.43;;